Enez Eussa 3 — FV5533 — position and weather

sailwx.info

Track history (hours):
 
Tides and Currents Weather Stations Pressure Air Temp Water Temp Dewpoint Dewpoint Depression Visibility Wind Speed Wind Dir Waves Ship Positions

Enez Eussa 3

Last reported at 2018-Jun-20 15:00 UTC. Time now 2018-Jun-20 15:22 UTC.
Position N 48°27' W 004°60'.

Length 45 m; draft 2.8 m.

Type: Passenger vessel. MMSI: 227003050.

Date/timePositionNaut miles runAvg speedWind from/ knotsBaromVisibWave heightAir tempDewpointWater temp
2018-Jun-20 15:00N 48°27' W 004°60'3 5.1
2018-Jun-20 14:28N 48°28' W 005°03'0 0.0
2018-Jun-20 13:59N 48°28' W 005°03'0 0.0
2018-Jun-20 13:30N 48°28' W 005°03'0 0.0
2018-Jun-20 13:00N 48°28' W 005°03'0 0.0
2018-Jun-20 12:30N 48°28' W 005°03'0 0.0
2018-Jun-20 12:00N 48°28' W 005°03'0 0.0
2018-Jun-20 11:30N 48°28' W 005°03'0 0.0
2018-Jun-20 11:00N 48°28' W 005°03'0 0.0
2018-Jun-20 10:30N 48°28' W 005°03'0 0.0
2018-Jun-20 10:00N 48°28' W 005°03'0 0.0
2018-Jun-20 09:30N 48°28' W 005°03'1 2.9
2018-Jun-20 09:00N 48°28' W 005°01'5 9.2
2018-Jun-20 08:30N 48°24' W 004°57'510.8
2018-Jun-20 08:00N 48°23' W 004°49'2 4.7
2018-Jun-20 07:30N 48°22' W 004°47'510.2
2018-Jun-20 07:00N 48°20' W 004°40'713.9
2018-Jun-20 06:30N 48°22' W 004°30'1 1.9
2018-Jun-20 06:00N 48°23' W 004°29'0 0.0
2018-Jun-20 05:30N 48°23' W 004°29'0 0.0
2018-Jun-19 18:07N 48°23' W 004°29'0 0.0
2018-Jun-19 18:00N 48°23' W 004°29'3 5.9
2018-Jun-19 17:30N 48°21' W 004°33'816.1
2018-Jun-19 17:00N 48°19' W 004°45'3 4.7
2018-Jun-19 16:27N 48°22' W 004°47'511.6
2018-Jun-19 16:00N 48°24' W 004°53'2 4.8
2018-Jun-19 15:30N 48°25' W 004°57'510.8
2018-Jun-19 15:00N 48°28' W 005°03'0 0.0
2018-Jun-19 14:10N 48°28' W 005°03'0 0.0
2018-Jun-19 14:00N 48°28' W 005°03'0 0.0
2018-Jun-19 13:30N 48°28' W 005°03'0 0.0
2018-Jun-19 13:00N 48°28' W 005°03'0 0.0
2018-Jun-19 12:30N 48°28' W 005°03'0 0.0
2018-Jun-19 12:01N 48°28' W 005°03'0 0.0
2018-Jun-19 11:31N 48°28' W 005°03'0 0.0
2018-Jun-19 11:00N 48°28' W 005°03'0 0.0
2018-Jun-19 10:30N 48°28' W 005°03'0 0.0
2018-Jun-19 10:01N 48°28' W 005°03'0 0.0
2018-Jun-19 09:30N 48°28' W 005°03'1 2.1
2018-Jun-19 09:00N 48°28' W 005°02'510.2
2018-Jun-19 08:31N 48°24' W 004°57'5 9.0
2018-Jun-19 08:00N 48°23' W 004°51'3 5.9
2018-Jun-19 07:30N 48°22' W 004°47'5 9.9
2018-Jun-19 07:00N 48°20' W 004°40'714.0
2018-Jun-19 06:31N 48°22' W 004°30'1 2.2
2018-Jun-19 06:00N 48°23' W 004°29'0 0.0
2018-Jun-19 05:28N 48°23' W 004°29'0 0.0
2018-Jun-17 23:39N 48°23' W 004°29'0 0.0
2018-Jun-17 23:30N 48°23' W 004°29'0 0.0
2018-Jun-17 23:00N 48°23' W 004°29'0 0.0
2018-Jun-17 22:30N 48°23' W 004°29'0 0.0
2018-Jun-17 22:00N 48°23' W 004°29'0 0.0
2018-Jun-17 21:30N 48°23' W 004°29'0 0.0
2018-Jun-17 21:00N 48°23' W 004°29'0 0.0
2018-Jun-17 20:30N 48°23' W 004°29'0 0.0
2018-Jun-17 20:00N 48°23' W 004°29'0 0.0
2018-Jun-17 19:30N 48°23' W 004°29'0 0.0
2018-Jun-17 19:00N 48°23' W 004°29'0 0.0
2018-Jun-17 18:30N 48°23' W 004°29'0 0.0
2018-Jun-17 18:00N 48°23' W 004°29'0 0.0
2018-Jun-17 17:30N 48°23' W 004°29'0 0.0
2018-Jun-17 17:00N 48°23' W 004°29'0 0.0
2018-Jun-17 16:30N 48°23' W 004°29'0 0.0
2018-Jun-17 16:00N 48°23' W 004°29'0 0.0
2018-Jun-17 15:30N 48°23' W 004°29'0 0.0
2018-Jun-17 15:00N 48°23' W 004°29'0 0.0
2018-Jun-17 14:30N 48°23' W 004°29'0 0.0
2018-Jun-17 14:00N 48°23' W 004°29'0 0.0
2018-Jun-17 13:30N 48°23' W 004°29'0 0.0
2018-Jun-17 13:00N 48°23' W 004°29'0 0.0
2018-Jun-17 12:30N 48°23' W 004°29'0 0.0
2018-Jun-17 12:00N 48°23' W 004°29'0 0.0
2018-Jun-17 11:30N 48°23' W 004°29'0 0.0
2018-Jun-17 11:00N 48°23' W 004°29'0 0.0
2018-Jun-17 10:30N 48°23' W 004°29'0 0.0
2018-Jun-17 10:00N 48°23' W 004°29'0 0.0
2018-Jun-17 09:30N 48°23' W 004°29'0 0.0
2018-Jun-17 09:00N 48°23' W 004°29'0 0.0
2018-Jun-17 08:30N 48°23' W 004°29'0 0.0
2018-Jun-17 08:00N 48°23' W 004°29'0 0.0
2018-Jun-17 07:30N 48°23' W 004°29'0 0.0
2018-Jun-17 07:00N 48°23' W 004°29'0 0.0
2018-Jun-17 06:30N 48°23' W 004°29'0 0.0
2018-Jun-17 06:00N 48°23' W 004°29'0 0.0
2018-Jun-17 05:30N 48°23' W 004°29'0 0.0
2018-Jun-17 05:00N 48°23' W 004°29'0 0.0
2018-Jun-17 04:30N 48°23' W 004°29'0 0.0
2018-Jun-17 04:00N 48°23' W 004°29'0 0.0
2018-Jun-17 03:30N 48°23' W 004°29'0 0.0
2018-Jun-17 03:00N 48°23' W 004°29'0 0.0
2018-Jun-17 02:30N 48°23' W 004°29'0 0.0
2018-Jun-17 02:00N 48°23' W 004°29'0 0.0
2018-Jun-17 01:30N 48°23' W 004°29'0 0.0
2018-Jun-17 01:00N 48°23' W 004°29'0 0.0
2018-Jun-17 00:30N 48°23' W 004°29'0 0.0
2018-Jun-17 00:00N 48°23' W 004°29'0 0.0
2018-Jun-16 23:30N 48°23' W 004°29'0 0.0
2018-Jun-16 23:00N 48°23' W 004°29'0 0.0
2018-Jun-16 22:30N 48°23' W 004°29'0 0.0
2018-Jun-16 22:00N 48°23' W 004°29'0 0.0
2018-Jun-16 21:30N 48°23' W 004°29'0 0.0
2018-Jun-16 21:00N 48°23' W 004°29'0 0.0
2018-Jun-16 20:30N 48°23' W 004°29'0 0.0
2018-Jun-16 20:00N 48°23' W 004°29'0 0.0
2018-Jun-16 19:30N 48°23' W 004°29'0 0.0
2018-Jun-16 19:00N 48°23' W 004°29'0 0.0
2018-Jun-16 18:30N 48°23' W 004°29'0 0.0
2018-Jun-16 18:00N 48°23' W 004°29'0 0.0
2018-Jun-16 17:30N 48°23' W 004°29'0 0.0
2018-Jun-16 17:00N 48°23' W 004°29'0 0.0
2018-Jun-16 16:30N 48°23' W 004°29'0 0.0
2018-Jun-16 16:00N 48°23' W 004°29'0 0.0
2018-Jun-16 15:30N 48°23' W 004°29'0 0.0
2018-Jun-16 15:00N 48°23' W 004°29'0 0.0
2018-Jun-16 14:30N 48°23' W 004°29'0 0.0
2018-Jun-16 14:00N 48°23' W 004°29'0 0.0
2018-Jun-16 13:30N 48°23' W 004°29'0 0.0
2018-Jun-16 13:00N 48°23' W 004°29'0 0.0
2018-Jun-16 12:30N 48°23' W 004°29'0 0.0
2018-Jun-16 12:00N 48°23' W 004°29'0 0.0
2018-Jun-16 11:30N 48°23' W 004°29'0 0.0
2018-Jun-16 11:00N 48°23' W 004°29'0 0.0
2018-Jun-15 01:22N 48°23' W 004°29'0 0.0
2018-Jun-15 00:58N 48°23' W 004°29'0 0.0
2018-Jun-15 00:28N 48°23' W 004°29'0 0.0
2018-Jun-14 23:58N 48°23' W 004°29'0 0.0
2018-Jun-14 23:28N 48°23' W 004°29'0 0.0
2018-Jun-14 22:58N 48°23' W 004°29'0 0.0
2018-Jun-14 22:28N 48°23' W 004°29'0 0.0
2018-Jun-14 21:58N 48°23' W 004°29'0 0.0
2018-Jun-14 21:28N 48°23' W 004°29'0 0.0
2018-Jun-14 20:58N 48°23' W 004°29'0 0.0
2018-Jun-14 20:28N 48°23' W 004°29'0 0.0
2018-Jun-14 19:58N 48°23' W 004°29'0 0.0
2018-Jun-14 19:28N 48°23' W 004°29'0 0.0
2018-Jun-14 18:58N 48°23' W 004°29'0 0.0
2018-Jun-14 18:28N 48°23' W 004°29'0 0.0
2018-Jun-14 17:58N 48°23' W 004°29'0 0.0
2018-Jun-14 17:28N 48°23' W 004°29'0 0.0
2018-Jun-14 16:58N 48°23' W 004°29'0 0.0
2018-Jun-14 16:28N 48°23' W 004°29'0 0.0
2018-Jun-14 15:58N 48°23' W 004°29'0 0.0
2018-Jun-14 15:28N 48°23' W 004°29'0 0.0
2018-Jun-14 14:58N 48°23' W 004°29'0 0.0
2018-Jun-14 14:28N 48°23' W 004°29'0 0.0
2018-Jun-14 13:58N 48°23' W 004°29'0 0.0
2018-Jun-14 13:28N 48°23' W 004°29'0 0.0
2018-Jun-14 12:58N 48°23' W 004°29'0 0.0
2018-Jun-14 12:28N 48°23' W 004°29'0 0.0
2018-Jun-14 11:58N 48°23' W 004°29'0 0.0
2018-Jun-14 11:28N 48°23' W 004°29'0 0.0
2018-Jun-14 10:58N 48°23' W 004°29'0 0.0
2018-Jun-14 10:28N 48°23' W 004°29'0 0.0
2018-Jun-14 09:58N 48°23' W 004°29'0 0.0
2018-Jun-14 09:28N 48°23' W 004°29'0 0.0
2018-Jun-14 08:58N 48°23' W 004°29'0 0.0
2018-Jun-14 08:28N 48°23' W 004°29'0 0.0
2018-Jun-14 07:58N 48°23' W 004°29'0 0.0
2018-Jun-14 07:28N 48°23' W 004°29'0 0.0
2018-Jun-14 06:58N 48°23' W 004°29'0 0.0
2018-Jun-14 06:28N 48°23' W 004°29'0 0.0
2018-Jun-14 05:58N 48°23' W 004°29'0 0.0
2018-Jun-14 05:28N 48°23' W 004°29'0 0.0
2018-Jun-14 04:58N 48°23' W 004°29'0 0.0
2018-Jun-14 04:28N 48°23' W 004°29'0 0.0
2018-Jun-14 03:58N 48°23' W 004°29'0 0.0
2018-Jun-14 03:28N 48°23' W 004°29'0 0.0
2018-Jun-14 02:58N 48°23' W 004°29'0 0.0
2018-Jun-14 02:28N 48°23' W 004°29'0 0.0
2018-Jun-14 01:58N 48°23' W 004°29'0 0.0
2018-Jun-14 01:28N 48°23' W 004°29'0 0.0
2018-Jun-14 00:58N 48°23' W 004°29'0 0.0
2018-Jun-14 00:28N 48°23' W 004°29'0 0.0
2018-Jun-13 23:58N 48°23' W 004°29'0 0.0
2018-Jun-13 23:28N 48°23' W 004°29'0 0.0
2018-Jun-13 22:58N 48°23' W 004°29'0 0.0
2018-Jun-13 22:28N 48°23' W 004°29'0 0.0
2018-Jun-13 21:58N 48°23' W 004°29'0 0.0
2018-Jun-13 21:28N 48°23' W 004°29'0 0.0
2018-Jun-13 20:58N 48°23' W 004°29'0 0.0
2018-Jun-13 20:28N 48°23' W 004°29'0 0.0
2018-Jun-13 19:58N 48°23' W 004°29'0 0.0
2018-Jun-13 19:28N 48°23' W 004°29'0 0.0
2018-Jun-13 18:58N 48°23' W 004°29'0 0.0
2018-Jun-13 18:28N 48°23' W 004°29'0 0.0
2018-Jun-13 17:58N 48°23' W 004°29'0 0.0
2018-Jun-13 17:28N 48°23' W 004°29'0 0.0
2018-Jun-13 16:58N 48°23' W 004°29'0 0.0
2018-Jun-13 16:28N 48°23' W 004°29'0 0.0
2018-Jun-13 15:58N 48°23' W 004°29'0 0.0
2018-Jun-13 15:28N 48°23' W 004°29'0 0.0
2018-Jun-13 14:58N 48°23' W 004°29'0 0.0
2018-Jun-13 14:28N 48°23' W 004°29'0 0.0
2018-Jun-13 13:58N 48°23' W 004°29'0 0.0
2018-Jun-13 13:28N 48°23' W 004°29'0 0.0
2018-Jun-13 12:58N 48°23' W 004°29'0 0.0
2018-Jun-13 12:28N 48°23' W 004°29'0 0.0
2018-Jun-13 11:58N 48°23' W 004°29'0 0.0
2018-Jun-13 11:28N 48°23' W 004°29'0 0.0
2018-Jun-13 10:58N 48°23' W 004°29'0 0.0
2018-Jun-13 10:28N 48°23' W 004°29'0 0.0
2018-Jun-13 09:58N 48°23' W 004°29'0 0.0
2018-Jun-13 09:28N 48°23' W 004°29'0 0.0
2018-Jun-13 08:58N 48°23' W 004°29'0 0.0
2018-Jun-13 08:28N 48°23' W 004°29'0 0.0
2018-Jun-13 07:58N 48°23' W 004°29'0 0.0
2018-Jun-13 07:28N 48°23' W 004°29'0 0.0
2018-Jun-13 06:58N 48°23' W 004°29'0 0.0
2018-Jun-13 06:28N 48°23' W 004°29'0 0.0
2018-Jun-13 05:58N 48°23' W 004°29'0 0.0
2018-Jun-13 05:28N 48°23' W 004°29'0 0.0
2018-Jun-13 04:58N 48°23' W 004°29'0 0.0
2018-Jun-13 04:28N 48°23' W 004°29'0 0.0
2018-Jun-13 03:58N 48°23' W 004°29'0 0.0
2018-Jun-13 03:28N 48°23' W 004°29'0 0.0
2018-Jun-13 02:58N 48°23' W 004°29'0 0.0
2018-Jun-13 02:28N 48°23' W 004°29'0 0.0
2018-Jun-13 01:58N 48°23' W 004°29'0 0.0
2018-Jun-13 01:28N 48°23' W 004°29'0 0.0
2018-Jun-13 00:58N 48°23' W 004°29'0 0.0
2018-Jun-13 00:28N 48°23' W 004°29'0 0.0
2018-Jun-12 23:58N 48°23' W 004°29'0 0.0
2018-Jun-12 23:28N 48°23' W 004°29'0 0.0
2018-Jun-12 22:58N 48°23' W 004°29'0 0.0
2018-Jun-12 22:28N 48°23' W 004°29'0 0.0
2018-Jun-12 21:58N 48°23' W 004°29'0 0.0
2018-Jun-12 21:28N 48°23' W 004°29'0 0.0
2018-Jun-12 20:58N 48°23' W 004°29'0 0.0
2018-Jun-12 20:28N 48°23' W 004°29'0 0.0
2018-Jun-12 19:58N 48°23' W 004°29'0 0.0
2018-Jun-12 19:28N 48°23' W 004°29'0 0.0
2018-Jun-12 18:58N 48°23' W 004°29'0 0.0
2018-Jun-12 18:28N 48°23' W 004°29'0 0.0
2018-Jun-12 17:58N 48°23' W 004°29'0 0.9
2018-Jun-12 17:30N 48°22' W 004°29'613.0
2018-Jun-12 17:00N 48°20' W 004°38'612.2
2018-Jun-12 16:30N 48°21' W 004°47'4 7.4
2018-Jun-12 16:00N 48°23' W 004°52'4 7.4
2018-Jun-12 15:31N 48°24' W 004°57'611.1
2018-Jun-12 15:00N 48°28' W 005°03'0 0.0
2018-Jun-12 14:30N 48°28' W 005°03'0 0.0
2018-Jun-12 14:00N 48°28' W 005°03'0 0.0
2018-Jun-12 13:30N 48°28' W 005°03'0 0.0
2018-Jun-12 13:00N 48°28' W 005°03'0 0.0
2018-Jun-12 12:30N 48°28' W 005°03'0 0.0
2018-Jun-12 12:00N 48°28' W 005°03'0 0.0
2018-Jun-12 09:05N 48°28' W 005°03'111.7
2018-Jun-12 09:00N 48°28' W 005°02'5 9.5
2018-Jun-12 08:31N 48°24' W 004°58'611.6
2018-Jun-12 08:00N 48°23' W 004°49'2 4.2
2018-Jun-12 07:27N 48°22' W 004°47'4 8.6
2018-Jun-12 07:00N 48°20' W 004°42'816.7
2018-Jun-12 06:31N 48°22' W 004°30'1 2.1
2018-Jun-12 06:01N 48°23' W 004°29'0 0.0
2018-Jun-12 05:31N 48°23' W 004°29'0 0.0
2018-Jun-12 05:01N 48°23' W 004°29'0 0.0
2018-Jun-12 04:31N 48°23' W 004°29'0 0.0
2018-Jun-12 04:00N 48°23' W 004°29'0 0.0
2018-Jun-12 03:31N 48°23' W 004°29'0 0.0
2018-Jun-12 03:01N 48°23' W 004°29'0 0.0
2018-Jun-12 02:31N 48°23' W 004°29'0 0.0
2018-Jun-12 02:00N 48°23' W 004°29'0 0.0
2018-Jun-12 01:30N 48°23' W 004°29'0 0.0
2018-Jun-12 01:01N 48°23' W 004°29'0 0.0
2018-Jun-12 00:30N 48°23' W 004°29'0 0.0
2018-Jun-12 00:01N 48°23' W 004°29'0 0.0
2018-Jun-11 23:30N 48°23' W 004°29'0 0.0
2018-Jun-11 23:01N 48°23' W 004°29'0 0.0
2018-Jun-11 22:31N 48°23' W 004°29'0 0.0
2018-Jun-11 22:01N 48°23' W 004°29'0 0.0
2018-Jun-11 21:31N 48°23' W 004°29'0 0.0
2018-Jun-11 21:01N 48°23' W 004°29'0 0.0
2018-Jun-11 20:30N 48°23' W 004°29'0 0.0
2018-Jun-11 20:01N 48°23' W 004°29'0 0.0
2018-Jun-11 19:30N 48°23' W 004°29'0 0.0
2018-Jun-11 19:00N 48°23' W 004°29'0 0.0
2018-Jun-11 18:31N 48°23' W 004°29'0 0.0
2018-Jun-11 18:00N 48°23' W 004°29'0 0.0
2018-Jun-11 17:31N 48°23' W 004°29'0 0.0
2018-Jun-11 17:01N 48°23' W 004°29'0 0.0
2018-Jun-11 16:31N 48°23' W 004°29'0 0.0
2018-Jun-11 16:01N 48°23' W 004°29'0 0.0
2018-Jun-11 15:31N 48°23' W 004°29'0 0.0
2018-Jun-11 15:00N 48°23' W 004°29'0 0.0
2018-Jun-11 14:30N 48°23' W 004°29'0 0.0
2018-Jun-11 14:01N 48°23' W 004°29'0 0.0
2018-Jun-11 13:31N 48°23' W 004°29'0 0.0
2018-Jun-11 13:01N 48°23' W 004°29'0 0.0
2018-Jun-11 12:30N 48°23' W 004°29'0 0.0
2018-Jun-11 12:01N 48°23' W 004°29'0 0.0
2018-Jun-11 11:31N 48°23' W 004°29'0 0.0
2018-Jun-11 11:00N 48°23' W 004°29'0 0.0
2018-Jun-11 10:31N 48°23' W 004°29'0 0.0
2018-Jun-11 10:01N 48°23' W 004°29'0 0.0
2018-Jun-11 09:30N 48°23' W 004°29'0 0.0
2018-Jun-11 09:00N 48°23' W 004°29'0 0.0
2018-Jun-11 08:31N 48°23' W 004°29'0 0.0
2018-Jun-11 08:01N 48°23' W 004°29'0 0.0
2018-Jun-11 07:30N 48°23' W 004°29'0 0.0
2018-Jun-11 07:00N 48°23' W 004°29'0 0.0
2018-Jun-11 06:31N 48°23' W 004°29'0 0.0
2018-Jun-11 06:01N 48°23' W 004°29'0 0.0
2018-Jun-11 05:31N 48°23' W 004°29'0 0.0
2018-Jun-11 05:00N 48°23' W 004°29'0 0.0
2018-Jun-11 04:30N 48°23' W 004°29'0 0.0
2018-Jun-11 04:01N 48°23' W 004°29'0 0.0
2018-Jun-11 03:30N 48°23' W 004°29'0 0.0
2018-Jun-11 03:00N 48°23' W 004°29'0 0.0
2018-Jun-11 02:30N 48°23' W 004°29'0 0.0
2018-Jun-11 02:01N 48°23' W 004°29'0 0.0
2018-Jun-11 01:30N 48°23' W 004°29'0 0.0
2018-Jun-11 01:01N 48°23' W 004°29'0 0.0
2018-Jun-11 00:30N 48°23' W 004°29'0 0.0
2018-Jun-11 00:01N 48°23' W 004°29'0 0.0
2018-Jun-10 23:31N 48°23' W 004°29'0 0.0
2018-Jun-10 23:01N 48°23' W 004°29'0 0.0
2018-Jun-10 22:31N 48°23' W 004°29'0 0.0
2018-Jun-10 22:01N 48°23' W 004°29'0 0.0
2018-Jun-10 21:30N 48°23' W 004°29'0 0.0
2018-Jun-10 21:00N 48°23' W 004°29'0 0.0
2018-Jun-10 20:30N 48°23' W 004°29'0 0.0
2018-Jun-10 20:00N 48°23' W 004°29'0 0.0
2018-Jun-10 19:31N 48°23' W 004°29'0 0.0
2018-Jun-10 19:00N 48°23' W 004°29'0 0.0
2018-Jun-10 18:31N 48°23' W 004°29'0 0.0
2018-Jun-10 18:00N 48°23' W 004°29'0 0.0
2018-Jun-10 17:30N 48°23' W 004°29'0 0.0
2018-Jun-10 17:01N 48°23' W 004°29'0 0.0
2018-Jun-10 16:31N 48°23' W 004°29'0 0.0
2018-Jun-10 16:00N 48°23' W 004°29'0 0.0
2018-Jun-10 15:31N 48°23' W 004°29'0 0.0
2018-Jun-10 15:01N 48°23' W 004°29'  
Track history (hours):
 
Tides and Currents Weather Stations Pressure Air Temp Water Temp Dewpoint Dewpoint Depression Visibility Wind Speed Wind Dir Waves Ship Positions

Enez Eussa 3

Last reported at 2018-Jun-20 15:00 UTC. Time now 2018-Jun-20 15:22 UTC.
Position N 48°27' W 004°60'.

Length 45 m; draft 2.8 m.

Type: Passenger vessel. MMSI: 227003050.

Date/timePositionNaut miles runAvg speedWind from/ knotsBaromVisibWave heightAir tempDewpointWater temp
2018-Jun-20 15:00N 48°27' W 004°60'3 5.1
2018-Jun-20 14:28N 48°28' W 005°03'0 0.0
2018-Jun-20 13:59N 48°28' W 005°03'0 0.0
2018-Jun-20 13:30N 48°28' W 005°03'0 0.0
2018-Jun-20 13:00N 48°28' W 005°03'0 0.0
2018-Jun-20 12:30N 48°28' W 005°03'0 0.0
2018-Jun-20 12:00N 48°28' W 005°03'0 0.0
2018-Jun-20 11:30N 48°28' W 005°03'0 0.0
2018-Jun-20 11:00N 48°28' W 005°03'0 0.0
2018-Jun-20 10:30N 48°28' W 005°03'0 0.0
2018-Jun-20 10:00N 48°28' W 005°03'0 0.0
2018-Jun-20 09:30N 48°28' W 005°03'1 2.9
2018-Jun-20 09:00N 48°28' W 005°01'5 9.2
2018-Jun-20 08:30N 48°24' W 004°57'510.8
2018-Jun-20 08:00N 48°23' W 004°49'2 4.7
2018-Jun-20 07:30N 48°22' W 004°47'510.2
2018-Jun-20 07:00N 48°20' W 004°40'713.9
2018-Jun-20 06:30N 48°22' W 004°30'1 1.9
2018-Jun-20 06:00N 48°23' W 004°29'0 0.0
2018-Jun-20 05:30N 48°23' W 004°29'0 0.0
2018-Jun-19 18:07N 48°23' W 004°29'0 0.0
2018-Jun-19 18:00N 48°23' W 004°29'3 5.9
2018-Jun-19 17:30N 48°21' W 004°33'816.1
2018-Jun-19 17:00N 48°19' W 004°45'3 4.7
2018-Jun-19 16:27N 48°22' W 004°47'511.6
2018-Jun-19 16:00N 48°24' W 004°53'2 4.8
2018-Jun-19 15:30N 48°25' W 004°57'510.8
2018-Jun-19 15:00N 48°28' W 005°03'0 0.0
2018-Jun-19 14:10N 48°28' W 005°03'0 0.0
2018-Jun-19 14:00N 48°28' W 005°03'0 0.0
2018-Jun-19 13:30N 48°28' W 005°03'0 0.0
2018-Jun-19 13:00N 48°28' W 005°03'0 0.0
2018-Jun-19 12:30N 48°28' W 005°03'0 0.0
2018-Jun-19 12:01N 48°28' W 005°03'0 0.0
2018-Jun-19 11:31N 48°28' W 005°03'0 0.0
2018-Jun-19 11:00N 48°28' W 005°03'0 0.0
2018-Jun-19 10:30N 48°28' W 005°03'0 0.0
2018-Jun-19 10:01N 48°28' W 005°03'0 0.0
2018-Jun-19 09:30N 48°28' W 005°03'1 2.1
2018-Jun-19 09:00N 48°28' W 005°02'510.2
2018-Jun-19 08:31N 48°24' W 004°57'5 9.0
2018-Jun-19 08:00N 48°23' W 004°51'3 5.9
2018-Jun-19 07:30N 48°22' W 004°47'5 9.9
2018-Jun-19 07:00N 48°20' W 004°40'714.0
2018-Jun-19 06:31N 48°22' W 004°30'1 2.2
2018-Jun-19 06:00N 48°23' W 004°29'0 0.0
2018-Jun-19 05:28N 48°23' W 004°29'0 0.0
2018-Jun-17 23:39N 48°23' W 004°29'0 0.0
2018-Jun-17 23:30N 48°23' W 004°29'0 0.0
2018-Jun-17 23:00N 48°23' W 004°29'0 0.0
2018-Jun-17 22:30N 48°23' W 004°29'0 0.0
2018-Jun-17 22:00N 48°23' W 004°29'0 0.0
2018-Jun-17 21:30N 48°23' W 004°29'0 0.0
2018-Jun-17 21:00N 48°23' W 004°29'0 0.0
2018-Jun-17 20:30N 48°23' W 004°29'0 0.0
2018-Jun-17 20:00N 48°23' W 004°29'0 0.0
2018-Jun-17 19:30N 48°23' W 004°29'0 0.0
2018-Jun-17 19:00N 48°23' W 004°29'0 0.0
2018-Jun-17 18:30N 48°23' W 004°29'0 0.0
2018-Jun-17 18:00N 48°23' W 004°29'0 0.0
2018-Jun-17 17:30N 48°23' W 004°29'0 0.0
2018-Jun-17 17:00N 48°23' W 004°29'0 0.0
2018-Jun-17 16:30N 48°23' W 004°29'0 0.0
2018-Jun-17 16:00N 48°23' W 004°29'0 0.0
2018-Jun-17 15:30N 48°23' W 004°29'0 0.0
2018-Jun-17 15:00N 48°23' W 004°29'0 0.0
2018-Jun-17 14:30N 48°23' W 004°29'0 0.0
2018-Jun-17 14:00N 48°23' W 004°29'0 0.0
2018-Jun-17 13:30N 48°23' W 004°29'0 0.0
2018-Jun-17 13:00N 48°23' W 004°29'0 0.0
2018-Jun-17 12:30N 48°23' W 004°29'0 0.0
2018-Jun-17 12:00N 48°23' W 004°29'0 0.0
2018-Jun-17 11:30N 48°23' W 004°29'0 0.0
2018-Jun-17 11:00N 48°23' W 004°29'0 0.0
2018-Jun-17 10:30N 48°23' W 004°29'0 0.0
2018-Jun-17 10:00N 48°23' W 004°29'0 0.0
2018-Jun-17 09:30N 48°23' W 004°29'0 0.0
2018-Jun-17 09:00N 48°23' W 004°29'0 0.0
2018-Jun-17 08:30N 48°23' W 004°29'0 0.0
2018-Jun-17 08:00N 48°23' W 004°29'0 0.0
2018-Jun-17 07:30N 48°23' W 004°29'0 0.0
2018-Jun-17 07:00N 48°23' W 004°29'0 0.0
2018-Jun-17 06:30N 48°23' W 004°29'0 0.0
2018-Jun-17 06:00N 48°23' W 004°29'0 0.0
2018-Jun-17 05:30N 48°23' W 004°29'0 0.0
2018-Jun-17 05:00N 48°23' W 004°29'0 0.0
2018-Jun-17 04:30N 48°23' W 004°29'0 0.0
2018-Jun-17 04:00N 48°23' W 004°29'0 0.0
2018-Jun-17 03:30N 48°23' W 004°29'0 0.0
2018-Jun-17 03:00N 48°23' W 004°29'0 0.0
2018-Jun-17 02:30N 48°23' W 004°29'0 0.0
2018-Jun-17 02:00N 48°23' W 004°29'0 0.0
2018-Jun-17 01:30N 48°23' W 004°29'0 0.0
2018-Jun-17 01:00N 48°23' W 004°29'0 0.0
2018-Jun-17 00:30N 48°23' W 004°29'0 0.0
2018-Jun-17 00:00N 48°23' W 004°29'0 0.0
2018-Jun-16 23:30N 48°23' W 004°29'0 0.0
2018-Jun-16 23:00N 48°23' W 004°29'0 0.0
2018-Jun-16 22:30N 48°23' W 004°29'0 0.0
2018-Jun-16 22:00N 48°23' W 004°29'0 0.0
2018-Jun-16 21:30N 48°23' W 004°29'0 0.0
2018-Jun-16 21:00N 48°23' W 004°29'0 0.0
2018-Jun-16 20:30N 48°23' W 004°29'0 0.0
2018-Jun-16 20:00N 48°23' W 004°29'0 0.0
2018-Jun-16 19:30N 48°23' W 004°29'0 0.0
2018-Jun-16 19:00N 48°23' W 004°29'0 0.0
2018-Jun-16 18:30N 48°23' W 004°29'0 0.0
2018-Jun-16 18:00N 48°23' W 004°29'0 0.0
2018-Jun-16 17:30N 48°23' W 004°29'0 0.0
2018-Jun-16 17:00N 48°23' W 004°29'0 0.0
2018-Jun-16 16:30N 48°23' W 004°29'0 0.0
2018-Jun-16 16:00N 48°23' W 004°29'0 0.0
2018-Jun-16 15:30N 48°23' W 004°29'0 0.0
2018-Jun-16 15:00N 48°23' W 004°29'0 0.0
2018-Jun-16 14:30N 48°23' W 004°29'0 0.0
2018-Jun-16 14:00N 48°23' W 004°29'0 0.0
2018-Jun-16 13:30N 48°23' W 004°29'0 0.0
2018-Jun-16 13:00N 48°23' W 004°29'0 0.0
2018-Jun-16 12:30N 48°23' W 004°29'0 0.0
2018-Jun-16 12:00N 48°23' W 004°29'0 0.0
2018-Jun-16 11:30N 48°23' W 004°29'0 0.0
2018-Jun-16 11:00N 48°23' W 004°29'0 0.0
2018-Jun-15 01:22N 48°23' W 004°29'0 0.0
2018-Jun-15 00:58N 48°23' W 004°29'0 0.0
2018-Jun-15 00:28N 48°23' W 004°29'0 0.0
2018-Jun-14 23:58N 48°23' W 004°29'0 0.0
2018-Jun-14 23:28N 48°23' W 004°29'0 0.0
2018-Jun-14 22:58N 48°23' W 004°29'0 0.0
2018-Jun-14 22:28N 48°23' W 004°29'0 0.0
2018-Jun-14 21:58N 48°23' W 004°29'0 0.0
2018-Jun-14 21:28N 48°23' W 004°29'0 0.0
2018-Jun-14 20:58N 48°23' W 004°29'0 0.0
2018-Jun-14 20:28N 48°23' W 004°29'0 0.0
2018-Jun-14 19:58N 48°23' W 004°29'0 0.0
2018-Jun-14 19:28N 48°23' W 004°29'0 0.0
2018-Jun-14 18:58N 48°23' W 004°29'0 0.0
2018-Jun-14 18:28N 48°23' W 004°29'0 0.0
2018-Jun-14 17:58N 48°23' W 004°29'0 0.0
2018-Jun-14 17:28N 48°23' W 004°29'0 0.0
2018-Jun-14 16:58N 48°23' W 004°29'0 0.0
2018-Jun-14 16:28N 48°23' W 004°29'0 0.0
2018-Jun-14 15:58N 48°23' W 004°29'0 0.0
2018-Jun-14 15:28N 48°23' W 004°29'0 0.0
2018-Jun-14 14:58N 48°23' W 004°29'0 0.0
2018-Jun-14 14:28N 48°23' W 004°29'0 0.0
2018-Jun-14 13:58N 48°23' W 004°29'0 0.0
2018-Jun-14 13:28N 48°23' W 004°29'0 0.0
2018-Jun-14 12:58N 48°23' W 004°29'0 0.0
2018-Jun-14 12:28N 48°23' W 004°29'0 0.0
2018-Jun-14 11:58N 48°23' W 004°29'0 0.0
2018-Jun-14 11:28N 48°23' W 004°29'0 0.0
2018-Jun-14 10:58N 48°23' W 004°29'0 0.0
2018-Jun-14 10:28N 48°23' W 004°29'0 0.0
2018-Jun-14 09:58N 48°23' W 004°29'0 0.0
2018-Jun-14 09:28N 48°23' W 004°29'0 0.0
2018-Jun-14 08:58N 48°23' W 004°29'0 0.0
2018-Jun-14 08:28N 48°23' W 004°29'0 0.0
2018-Jun-14 07:58N 48°23' W 004°29'0 0.0
2018-Jun-14 07:28N 48°23' W 004°29'0 0.0
2018-Jun-14 06:58N 48°23' W 004°29'0 0.0
2018-Jun-14 06:28N 48°23' W 004°29'0 0.0
2018-Jun-14 05:58N 48°23' W 004°29'0 0.0
2018-Jun-14 05:28N 48°23' W 004°29'0 0.0
2018-Jun-14 04:58N 48°23' W 004°29'0 0.0
2018-Jun-14 04:28N 48°23' W 004°29'0 0.0
2018-Jun-14 03:58N 48°23' W 004°29'0 0.0
2018-Jun-14 03:28N 48°23' W 004°29'0 0.0
2018-Jun-14 02:58N 48°23' W 004°29'0 0.0
2018-Jun-14 02:28N 48°23' W 004°29'0 0.0
2018-Jun-14 01:58N 48°23' W 004°29'0 0.0
2018-Jun-14 01:28N 48°23' W 004°29'0 0.0
2018-Jun-14 00:58N 48°23' W 004°29'0 0.0
2018-Jun-14 00:28N 48°23' W 004°29'0 0.0
2018-Jun-13 23:58N 48°23' W 004°29'0 0.0
2018-Jun-13 23:28N 48°23' W 004°29'0 0.0
2018-Jun-13 22:58N 48°23' W 004°29'0 0.0
2018-Jun-13 22:28N 48°23' W 004°29'0 0.0
2018-Jun-13 21:58N 48°23' W 004°29'0 0.0
2018-Jun-13 21:28N 48°23' W 004°29'0 0.0
2018-Jun-13 20:58N 48°23' W 004°29'0 0.0
2018-Jun-13 20:28N 48°23' W 004°29'0 0.0
2018-Jun-13 19:58N 48°23' W 004°29'0 0.0
2018-Jun-13 19:28N 48°23' W 004°29'0 0.0
2018-Jun-13 18:58N 48°23' W 004°29'0 0.0
2018-Jun-13 18:28N 48°23' W 004°29'0 0.0
2018-Jun-13 17:58N 48°23' W 004°29'0 0.0
2018-Jun-13 17:28N 48°23' W 004°29'0 0.0
2018-Jun-13 16:58N 48°23' W 004°29'0 0.0
2018-Jun-13 16:28N 48°23' W 004°29'0 0.0
2018-Jun-13 15:58N 48°23' W 004°29'0 0.0
2018-Jun-13 15:28N 48°23' W 004°29'0 0.0
2018-Jun-13 14:58N 48°23' W 004°29'0 0.0
2018-Jun-13 14:28N 48°23' W 004°29'0 0.0
2018-Jun-13 13:58N 48°23' W 004°29'0 0.0
2018-Jun-13 13:28N 48°23' W 004°29'0 0.0
2018-Jun-13 12:58N 48°23' W 004°29'0 0.0
2018-Jun-13 12:28N 48°23' W 004°29'0 0.0
2018-Jun-13 11:58N 48°23' W 004°29'0 0.0
2018-Jun-13 11:28N 48°23' W 004°29'0 0.0
2018-Jun-13 10:58N 48°23' W 004°29'0 0.0
2018-Jun-13 10:28N 48°23' W 004°29'0 0.0
2018-Jun-13 09:58N 48°23' W 004°29'0 0.0
2018-Jun-13 09:28N 48°23' W 004°29'0 0.0
2018-Jun-13 08:58N 48°23' W 004°29'0 0.0
2018-Jun-13 08:28N 48°23' W 004°29'0 0.0
2018-Jun-13 07:58N 48°23' W 004°29'0 0.0
2018-Jun-13 07:28N 48°23' W 004°29'0 0.0
2018-Jun-13 06:58N 48°23' W 004°29'0 0.0
2018-Jun-13 06:28N 48°23' W 004°29'0 0.0
2018-Jun-13 05:58N 48°23' W 004°29'0 0.0
2018-Jun-13 05:28N 48°23' W 004°29'0 0.0
2018-Jun-13 04:58N 48°23' W 004°29'0 0.0
2018-Jun-13 04:28N 48°23' W 004°29'0 0.0
2018-Jun-13 03:58N 48°23' W 004°29'0 0.0
2018-Jun-13 03:28N 48°23' W 004°29'0 0.0
2018-Jun-13 02:58N 48°23' W 004°29'0 0.0
2018-Jun-13 02:28N 48°23' W 004°29'0 0.0
2018-Jun-13 01:58N 48°23' W 004°29'0 0.0
2018-Jun-13 01:28N 48°23' W 004°29'0 0.0
2018-Jun-13 00:58N 48°23' W 004°29'0 0.0
2018-Jun-13 00:28N 48°23' W 004°29'0 0.0
2018-Jun-12 23:58N 48°23' W 004°29'0 0.0
2018-Jun-12 23:28N 48°23' W 004°29'0 0.0
2018-Jun-12 22:58N 48°23' W 004°29'0 0.0
2018-Jun-12 22:28N 48°23' W 004°29'0 0.0
2018-Jun-12 21:58N 48°23' W 004°29'0 0.0
2018-Jun-12 21:28N 48°23' W 004°29'0 0.0
2018-Jun-12 20:58N 48°23' W 004°29'0 0.0
2018-Jun-12 20:28N 48°23' W 004°29'0 0.0
2018-Jun-12 19:58N 48°23' W 004°29'0 0.0
2018-Jun-12 19:28N 48°23' W 004°29'0 0.0
2018-Jun-12 18:58N 48°23' W 004°29'0 0.0
2018-Jun-12 18:28N 48°23' W 004°29'0 0.0
2018-Jun-12 17:58N 48°23' W 004°29'0 0.9
2018-Jun-12 17:30N 48°22' W 004°29'613.0
2018-Jun-12 17:00N 48°20' W 004°38'612.2
2018-Jun-12 16:30N 48°21' W 004°47'4 7.4
2018-Jun-12 16:00N 48°23' W 004°52'4 7.4
2018-Jun-12 15:31N 48°24' W 004°57'611.1
2018-Jun-12 15:00N 48°28' W 005°03'0 0.0
2018-Jun-12 14:30N 48°28' W 005°03'0 0.0
2018-Jun-12 14:00N 48°28' W 005°03'0 0.0
2018-Jun-12 13:30N 48°28' W 005°03'0 0.0
2018-Jun-12 13:00N 48°28' W 005°03'0 0.0
2018-Jun-12 12:30N 48°28' W 005°03'0 0.0
2018-Jun-12 12:00N 48°28' W 005°03'0 0.0
2018-Jun-12 09:05N 48°28' W 005°03'111.7
2018-Jun-12 09:00N 48°28' W 005°02'5 9.5
2018-Jun-12 08:31N 48°24' W 004°58'611.6
2018-Jun-12 08:00N 48°23' W 004°49'2 4.2
2018-Jun-12 07:27N 48°22' W 004°47'4 8.6
2018-Jun-12 07:00N 48°20' W 004°42'816.7
2018-Jun-12 06:31N 48°22' W 004°30'1 2.1
2018-Jun-12 06:01N 48°23' W 004°29'0 0.0
2018-Jun-12 05:31N 48°23' W 004°29'0 0.0
2018-Jun-12 05:01N 48°23' W 004°29'0 0.0
2018-Jun-12 04:31N 48°23' W 004°29'0 0.0
2018-Jun-12 04:00N 48°23' W 004°29'0 0.0
2018-Jun-12 03:31N 48°23' W 004°29'0 0.0
2018-Jun-12 03:01N 48°23' W 004°29'0 0.0
2018-Jun-12 02:31N 48°23' W 004°29'0 0.0
2018-Jun-12 02:00N 48°23' W 004°29'0 0.0
2018-Jun-12 01:30N 48°23' W 004°29'0 0.0
2018-Jun-12 01:01N 48°23' W 004°29'0 0.0
2018-Jun-12 00:30N 48°23' W 004°29'0 0.0
2018-Jun-12 00:01N 48°23' W 004°29'0 0.0
2018-Jun-11 23:30N 48°23' W 004°29'0 0.0
2018-Jun-11 23:01N 48°23' W 004°29'0 0.0
2018-Jun-11 22:31N 48°23' W 004°29'0 0.0
2018-Jun-11 22:01N 48°23' W 004°29'0 0.0
2018-Jun-11 21:31N 48°23' W 004°29'0 0.0
2018-Jun-11 21:01N 48°23' W 004°29'0 0.0
2018-Jun-11 20:30N 48°23' W 004°29'0 0.0
2018-Jun-11 20:01N 48°23' W 004°29'0 0.0
2018-Jun-11 19:30N 48°23' W 004°29'0 0.0
2018-Jun-11 19:00N 48°23' W 004°29'0 0.0
2018-Jun-11 18:31N 48°23' W 004°29'0 0.0
2018-Jun-11 18:00N 48°23' W 004°29'0 0.0
2018-Jun-11 17:31N 48°23' W 004°29'0 0.0
2018-Jun-11 17:01N 48°23' W 004°29'0 0.0
2018-Jun-11 16:31N 48°23' W 004°29'0 0.0
2018-Jun-11 16:01N 48°23' W 004°29'0 0.0
2018-Jun-11 15:31N 48°23' W 004°29'0 0.0
2018-Jun-11 15:00N 48°23' W 004°29'0 0.0
2018-Jun-11 14:30N 48°23' W 004°29'0 0.0
2018-Jun-11 14:01N 48°23' W 004°29'0 0.0
2018-Jun-11 13:31N 48°23' W 004°29'0 0.0
2018-Jun-11 13:01N 48°23' W 004°29'0 0.0
2018-Jun-11 12:30N 48°23' W 004°29'0 0.0
2018-Jun-11 12:01N 48°23' W 004°29'0 0.0
2018-Jun-11 11:31N 48°23' W 004°29'0 0.0
2018-Jun-11 11:00N 48°23' W 004°29'0 0.0
2018-Jun-11 10:31N 48°23' W 004°29'0 0.0
2018-Jun-11 10:01N 48°23' W 004°29'0 0.0
2018-Jun-11 09:30N 48°23' W 004°29'0 0.0
2018-Jun-11 09:00N 48°23' W 004°29'0 0.0
2018-Jun-11 08:31N 48°23' W 004°29'0 0.0
2018-Jun-11 08:01N 48°23' W 004°29'0 0.0
2018-Jun-11 07:30N 48°23' W 004°29'0 0.0
2018-Jun-11 07:00N 48°23' W 004°29'0 0.0
2018-Jun-11 06:31N 48°23' W 004°29'0 0.0
2018-Jun-11 06:01N 48°23' W 004°29'0 0.0
2018-Jun-11 05:31N 48°23' W 004°29'0 0.0
2018-Jun-11 05:00N 48°23' W 004°29'0 0.0
2018-Jun-11 04:30N 48°23' W 004°29'0 0.0
2018-Jun-11 04:01N 48°23' W 004°29'0 0.0
2018-Jun-11 03:30N 48°23' W 004°29'0 0.0
2018-Jun-11 03:00N 48°23' W 004°29'0 0.0
2018-Jun-11 02:30N 48°23' W 004°29'0 0.0
2018-Jun-11 02:01N 48°23' W 004°29'0 0.0
2018-Jun-11 01:30N 48°23' W 004°29'0 0.0
2018-Jun-11 01:01N 48°23' W 004°29'0 0.0
2018-Jun-11 00:30N 48°23' W 004°29'0 0.0
2018-Jun-11 00:01N 48°23' W 004°29'0 0.0
2018-Jun-10 23:31N 48°23' W 004°29'0 0.0
2018-Jun-10 23:01N 48°23' W 004°29'0 0.0
2018-Jun-10 22:31N 48°23' W 004°29'0 0.0
2018-Jun-10 22:01N 48°23' W 004°29'0 0.0
2018-Jun-10 21:30N 48°23' W 004°29'0 0.0
2018-Jun-10 21:00N 48°23' W 004°29'0 0.0
2018-Jun-10 20:30N 48°23' W 004°29'0 0.0
2018-Jun-10 20:00N 48°23' W 004°29'0 0.0
2018-Jun-10 19:31N 48°23' W 004°29'0 0.0
2018-Jun-10 19:00N 48°23' W 004°29'0 0.0
2018-Jun-10 18:31N 48°23' W 004°29'0 0.0
2018-Jun-10 18:00N 48°23' W 004°29'0 0.0
2018-Jun-10 17:30N 48°23' W 004°29'0 0.0
2018-Jun-10 17:01N 48°23' W 004°29'0 0.0
2018-Jun-10 16:31N 48°23' W 004°29'0 0.0
2018-Jun-10 16:00N 48°23' W 004°29'0 0.0
2018-Jun-10 15:31N 48°23' W 004°29'0 0.0
2018-Jun-10 15:01N 48°23' W 004°29'  

Dump ship's entire track history